createdAt,value
2023-01-18T03:59:33.615Z,40.73
2023-01-18T04:00:32.533Z,41.22
2023-01-18T04:01:32.669Z,40.93
2023-01-18T04:02:32.536Z,41.12
2023-01-18T04:03:33.100Z,40.93
2023-01-18T04:04:32.482Z,41.02
2023-01-18T04:05:32.588Z,41.12
2023-01-18T04:06:33.088Z,41.12
2023-01-18T04:07:31.456Z,41.22
2023-01-18T04:08:33.078Z,41.22
2023-01-18T04:09:33.068Z,41.41
2023-01-18T04:10:33.109Z,41.50
2023-01-18T04:11:33.080Z,41.31
2023-01-18T04:12:33.078Z,41.50
2023-01-18T04:13:33.092Z,41.50
2023-01-18T04:14:33.106Z,41.41
2023-01-18T04:15:33.080Z,41.79
2023-01-18T04:16:33.080Z,41.99
2023-01-18T04:17:33.076Z,41.41
2023-01-18T04:18:33.102Z,41.41
2023-01-18T04:19:33.083Z,41.62
2023-01-18T04:20:33.087Z,41.89
2023-01-18T04:21:33.091Z,41.62
2023-01-18T04:22:33.090Z,41.91
2023-01-18T04:23:33.135Z,41.82
2023-01-18T04:24:33.074Z,41.89
2023-01-18T04:25:33.082Z,41.89
2023-01-18T04:26:33.098Z,41.70
2023-01-18T04:27:33.090Z,41.82
2023-01-18T04:28:31.347Z,41.33
2023-01-18T04:29:31.356Z,41.91
2023-01-18T04:30:31.318Z,41.31
2023-01-18T04:31:31.399Z,41.43
2023-01-18T04:32:32.594Z,41.41
2023-01-18T04:33:31.304Z,41.72
2023-01-18T04:34:31.299Z,41.43
2023-01-18T04:35:32.603Z,41.43
2023-01-18T04:36:31.288Z,41.43
2023-01-18T04:37:33.102Z,41.43
2023-01-18T04:38:31.274Z,41.72
2023-01-18T04:39:31.286Z,41.53
2023-01-18T04:40:32.267Z,41.33
2023-01-18T04:41:33.105Z,41.43
2023-01-18T04:42:32.630Z,41.62
2023-01-18T04:43:31.248Z,41.72
2023-01-18T04:44:33.095Z,41.62
2023-01-18T04:45:31.236Z,41.43
2023-01-18T04:47:32.633Z,41.43
2023-01-18T04:48:32.227Z,41.43
2023-01-18T04:49:33.099Z,41.24
2023-01-18T04:50:32.216Z,41.24
2023-01-18T04:51:33.097Z,41.24
2023-01-18T04:52:32.612Z,41.24
2023-01-18T04:53:33.102Z,41.33
2023-01-18T04:54:32.190Z,41.24
2023-01-18T04:55:31.201Z,41.14
2023-01-18T04:56:31.179Z,41.05
2023-01-18T04:57:33.118Z,41.24
2023-01-18T04:58:31.190Z,41.24
2023-01-18T04:59:31.193Z,41.05
2023-01-18T05:00:32.679Z,41.14
2023-01-18T05:01:31.336Z,41.05
2023-01-18T05:02:31.276Z,41.05
2023-01-18T05:03:31.174Z,40.95
2023-01-18T05:04:31.148Z,40.95
2023-01-18T05:05:32.619Z,40.85
2023-01-18T05:06:31.135Z,41.24
2023-01-18T05:07:32.722Z,41.24
2023-01-18T05:08:32.638Z,41.33
2023-01-18T05:09:31.140Z,41.05
2023-01-18T05:10:31.120Z,40.76
2023-01-18T05:11:32.625Z,40.76
2023-01-18T05:12:32.141Z,40.76
2023-01-18T05:13:32.626Z,40.76
2023-01-18T05:14:32.632Z,41.33
2023-01-18T05:15:32.101Z,40.66
2023-01-18T05:16:32.697Z,40.76
2023-01-18T05:17:32.667Z,40.58
2023-01-18T05:18:32.069Z,40.76
2023-01-18T05:19:32.659Z,40.88
2023-01-18T05:20:31.070Z,41.35
2023-01-18T05:21:32.636Z,40.95
2023-01-18T05:22:32.633Z,40.97
2023-01-18T05:23:32.667Z,41.14
2023-01-18T05:24:32.641Z,41.05
2023-01-18T05:25:32.653Z,41.06
2023-01-18T05:26:32.640Z,41.06
2023-01-18T05:27:32.644Z,40.76
2023-01-18T05:28:32.646Z,40.78
2023-01-18T05:29:32.627Z,41.16
2023-01-18T05:30:32.647Z,40.58
2023-01-18T05:31:32.663Z,41.06
2023-01-18T05:32:32.039Z,40.66
2023-01-18T05:33:32.007Z,41.14
2023-01-18T05:34:32.033Z,41.06
2023-01-18T05:35:31.999Z,40.97
2023-01-18T05:36:32.019Z,40.78
2023-01-18T05:37:32.162Z,40.78
2023-01-18T05:38:31.970Z,40.68
2023-01-18T05:39:32.145Z,40.78
2023-01-18T05:40:32.167Z,40.78
2023-01-18T05:41:31.982Z,40.88
2023-01-18T05:42:32.646Z,40.78
2023-01-18T05:43:33.834Z,40.78
2023-01-18T05:44:32.657Z,40.78
2023-01-18T05:45:32.715Z,40.78
2023-01-18T05:46:32.656Z,40.97
2023-01-18T05:47:32.651Z,40.88
2023-01-18T05:48:32.671Z,40.68
2023-01-18T05:49:32.675Z,40.68
2023-01-18T05:50:32.660Z,40.58
2023-01-18T05:51:32.703Z,40.39
2023-01-18T05:52:32.651Z,40.49
2023-01-18T05:53:30.912Z,40.49
2023-01-18T05:54:31.903Z,40.88
2023-01-18T05:55:32.672Z,40.78
2023-01-18T05:56:31.891Z,40.88
2023-01-18T05:57:32.688Z,40.68
2023-01-18T05:58:30.888Z,40.78
2023-01-18T05:59:30.877Z,40.78
2023-01-18T06:00:30.866Z,40.68
2023-01-18T06:01:30.946Z,40.68
2023-01-18T06:02:32.189Z,40.68
2023-01-18T06:03:30.881Z,40.78
2023-01-18T06:04:30.922Z,40.39
2023-01-18T06:05:30.853Z,40.49
2023-01-18T06:06:34.609Z,40.37
2023-01-18T06:07:30.853Z,40.49
2023-01-18T06:08:32.673Z,40.30
2023-01-18T06:09:30.821Z,40.49
2023-01-18T06:10:30.822Z,40.20
2023-01-18T06:11:30.814Z,40.30
2023-01-18T06:12:30.825Z,40.49
2023-01-18T06:13:32.734Z,40.20
2023-01-18T06:14:31.801Z,40.20
2023-01-18T06:15:30.792Z,40.39
2023-01-18T06:16:32.712Z,40.39
2023-01-18T06:17:30.789Z,40.30
2023-01-18T06:18:32.736Z,40.20
2023-01-18T06:19:31.774Z,40.20
2023-01-18T06:20:32.665Z,40.30
2023-01-18T06:21:30.764Z,40.20
2023-01-18T06:22:32.678Z,40.20
2023-01-18T06:23:32.704Z,40.11
2023-01-18T06:24:32.698Z,40.20
2023-01-18T06:25:32.671Z,40.11
2023-01-18T06:26:32.674Z,40.11
2023-01-18T06:27:32.677Z,39.99
2023-01-18T06:28:32.719Z,40.30
2023-01-18T06:29:32.696Z,40.11
2023-01-18T06:30:32.712Z,40.08
2023-01-18T06:31:32.720Z,40.08
2023-01-18T06:32:32.683Z,40.28
2023-01-18T06:33:32.689Z,40.39
2023-01-18T06:34:32.713Z,40.18
2023-01-18T06:35:32.217Z,40.30
2023-01-18T06:36:31.760Z,40.49
2023-01-18T06:37:32.189Z,40.01
2023-01-18T06:38:32.203Z,40.49
2023-01-18T06:39:32.217Z,40.01
2023-01-18T06:40:32.197Z,40.30
2023-01-18T06:41:32.213Z,40.49
2023-01-18T06:42:30.676Z,40.37
2023-01-18T06:43:30.711Z,40.37
2023-01-18T06:44:30.649Z,40.37
2023-01-18T06:45:32.344Z,40.28
2023-01-18T06:46:32.218Z,40.28
2023-01-18T06:47:30.637Z,39.89
2023-01-18T06:48:32.240Z,39.61
2023-01-18T06:49:32.397Z,39.81
2023-01-18T06:50:31.763Z,39.79
2023-01-18T06:51:30.616Z,40.49
2023-01-18T06:52:30.615Z,39.91
2023-01-18T06:53:32.217Z,39.72
2023-01-18T06:54:31.604Z,39.70
2023-01-18T06:55:32.258Z,39.89
2023-01-18T06:56:32.224Z,40.08
2023-01-18T06:57:32.243Z,40.08
2023-01-18T06:58:32.238Z,40.11
2023-01-18T06:59:30.579Z,40.08
2023-01-18T07:00:30.600Z,40.11
2023-01-18T07:01:30.761Z,40.18
2023-01-18T07:02:30.559Z,40.11
2023-01-18T07:03:32.290Z,39.99
2023-01-18T07:04:33.057Z,39.99
2023-01-18T07:05:30.546Z,40.08
2023-01-18T07:06:32.237Z,40.11
2023-01-18T07:07:30.570Z,39.89
2023-01-18T07:08:30.540Z,40.01
2023-01-18T07:09:30.527Z,39.89
2023-01-18T07:10:30.524Z,39.91
2023-01-18T07:11:32.241Z,39.99
2023-01-18T07:12:30.513Z,40.20
2023-01-18T07:13:30.508Z,39.99
2023-01-18T07:14:31.530Z,40.08
2023-01-18T07:15:31.763Z,40.11
2023-01-18T07:16:30.565Z,40.20
2023-01-18T07:17:32.218Z,39.91
2023-01-18T07:18:32.216Z,39.89
2023-01-18T07:19:32.234Z,40.08
2023-01-18T07:20:32.259Z,40.18
2023-01-18T07:21:32.484Z,40.11
2023-01-18T07:22:31.802Z,39.99
2023-01-18T07:24:32.228Z,40.11
2023-01-18T07:25:32.241Z,39.99
2023-01-18T07:26:32.242Z,40.08
2023-01-18T07:27:32.238Z,40.20
2023-01-18T07:28:32.297Z,40.01
2023-01-18T07:29:30.440Z,40.11
2023-01-18T07:30:30.439Z,40.20
2023-01-18T07:31:32.294Z,40.11
2023-01-18T07:32:30.411Z,40.11
2023-01-18T07:33:30.417Z,40.20
2023-01-18T07:34:30.416Z,40.20
2023-01-18T07:35:30.427Z,40.20
2023-01-18T07:36:32.235Z,39.72
2023-01-18T07:37:31.763Z,39.81
2023-01-18T07:38:30.380Z,39.91
2023-01-18T07:39:32.252Z,40.11
2023-01-18T07:40:30.382Z,39.81
2023-01-18T07:41:31.131Z,39.91
2023-01-18T07:42:32.258Z,39.72
2023-01-18T07:43:32.302Z,39.81
2023-01-18T07:44:30.374Z,39.81
2023-01-18T07:45:30.598Z,39.72
2023-01-18T07:46:30.553Z,40.11
2023-01-18T07:47:32.255Z,39.91
2023-01-18T07:48:30.348Z,40.01
2023-01-18T07:49:30.342Z,40.20
2023-01-18T07:50:32.256Z,40.11
2023-01-18T07:51:31.330Z,39.91
2023-01-18T07:52:32.289Z,39.91
2023-01-18T07:53:30.351Z,40.11
2023-01-18T07:54:32.235Z,39.81
2023-01-18T07:55:32.267Z,39.81
2023-01-18T07:56:32.301Z,40.01
2023-01-18T07:57:32.304Z,40.20
2023-01-18T07:58:32.288Z,40.01
2023-01-18T07:59:32.284Z,39.81
2023-01-18T08:00:32.245Z,40.01
2023-01-18T08:01:31.339Z,40.01
2023-01-18T08:02:32.328Z,40.01
2023-01-18T08:03:32.261Z,39.91
2023-01-18T08:04:31.767Z,39.91
2023-01-18T08:05:31.752Z,40.20
2023-01-18T08:06:31.806Z,40.20
2023-01-18T08:07:31.765Z,39.72
2023-01-18T08:08:31.774Z,40.11
2023-01-18T08:09:31.767Z,40.01
2023-01-18T08:10:31.778Z,39.72
2023-01-18T08:11:31.785Z,39.91
2023-01-18T08:12:32.017Z,40.01
2023-01-18T08:14:31.770Z,40.01
2023-01-18T08:15:31.853Z,39.72
2023-01-18T08:16:31.777Z,39.72
2023-01-18T08:17:31.784Z,39.62
2023-01-18T08:18:30.194Z,39.72
2023-01-18T08:19:30.221Z,39.81
2023-01-18T08:20:31.781Z,39.81
2023-01-18T08:21:31.784Z,40.01
2023-01-18T08:22:30.167Z,39.72
2023-01-18T08:23:31.837Z,40.01
2023-01-18T08:24:30.153Z,39.62
2023-01-18T08:25:31.812Z,39.81
2023-01-18T08:26:31.767Z,39.72
2023-01-18T08:27:31.796Z,39.72
2023-01-18T08:28:31.801Z,39.72
2023-01-18T08:29:31.767Z,39.72
2023-01-18T08:30:30.255Z,39.53
2023-01-18T08:31:32.942Z,39.81
2023-01-18T08:32:30.334Z,39.81
2023-01-18T08:33:30.114Z,39.53
2023-01-18T08:34:34.091Z,39.53
2023-01-18T08:35:31.603Z,39.81
2023-01-18T08:36:33.622Z,39.72
2023-01-18T08:37:30.780Z,39.43
2023-01-18T08:38:31.791Z,39.72
2023-01-18T08:39:31.835Z,39.53
2023-01-18T08:40:30.134Z,39.72
2023-01-18T08:41:30.084Z,39.62
2023-01-18T08:42:31.803Z,39.72
2023-01-18T08:43:30.076Z,39.53
2023-01-18T08:44:31.788Z,39.53
2023-01-18T08:45:30.081Z,39.62
2023-01-18T08:46:31.863Z,39.62
2023-01-18T08:47:30.085Z,39.53
2023-01-18T08:48:31.844Z,39.72
2023-01-18T08:49:31.789Z,39.53
2023-01-18T08:50:30.097Z,39.62
2023-01-18T08:51:31.834Z,39.72
2023-01-18T08:52:30.045Z,39.72
2023-01-18T08:53:30.076Z,39.74
2023-01-18T08:54:31.867Z,39.54
2023-01-18T08:55:30.033Z,39.43
2023-01-18T08:56:31.834Z,39.64
2023-01-18T08:57:30.960Z,39.26
2023-01-18T08:58:31.888Z,39.83
2023-01-18T08:59:31.869Z,39.36
2023-01-18T09:00:31.859Z,39.74
2023-01-18T09:01:31.961Z,39.83
2023-01-18T09:02:31.911Z,39.74
2023-01-18T09:03:29.981Z,39.16
2023-01-18T09:04:31.360Z,39.72
2023-01-18T09:05:31.874Z,39.74
2023-01-18T09:06:32.041Z,39.74
2023-01-18T09:07:31.814Z,39.16
2023-01-18T09:08:29.947Z,39.54
2023-01-18T09:09:31.828Z,39.16
2023-01-18T09:10:29.963Z,39.54
2023-01-18T09:11:29.938Z,39.74
2023-01-18T09:12:29.933Z,39.64
2023-01-18T09:13:30.824Z,39.16
2023-01-18T09:14:29.933Z,39.74
2023-01-18T09:15:29.932Z,39.16
2023-01-18T09:16:32.020Z,39.36
2023-01-18T09:17:30.920Z,39.54
2023-01-18T09:18:31.352Z,39.16
2023-01-18T09:19:29.918Z,39.64
2023-01-18T09:20:31.837Z,39.64
2023-01-18T09:21:29.927Z,39.45
2023-01-18T09:23:31.826Z,39.54
2023-01-18T09:24:29.875Z,39.54
2023-01-18T09:25:31.816Z,39.26
2023-01-18T09:26:31.338Z,39.54
2023-01-18T09:27:31.836Z,39.54
2023-01-18T09:28:31.885Z,39.54
2023-01-18T09:29:31.881Z,39.45
2023-01-18T09:30:30.866Z,39.45
2023-01-18T09:31:31.884Z,39.45
2023-01-18T09:32:31.860Z,39.64
2023-01-18T09:33:37.544Z,39.45
2023-01-18T09:34:31.318Z,39.45
2023-01-18T09:35:31.391Z,38.97
2023-01-18T09:37:31.356Z,39.09
2023-01-18T09:38:31.324Z,39.09
2023-01-18T09:39:37.619Z,39.47
2023-01-18T09:40:31.419Z,39.37
2023-01-18T09:41:31.353Z,38.99
2023-01-18T09:42:31.345Z,39.37
2023-01-18T09:43:31.467Z,39.18
2023-01-18T09:44:29.815Z,39.06
2023-01-18T09:45:29.795Z,39.18
2023-01-18T09:46:31.346Z,39.09
2023-01-18T09:47:31.365Z,39.18
2023-01-18T09:48:31.355Z,39.18
2023-01-18T09:49:31.373Z,39.28
2023-01-18T09:50:32.359Z,39.47
2023-01-18T09:51:31.390Z,39.37
2023-01-18T09:52:31.349Z,39.28
2023-01-18T09:53:29.749Z,39.18
2023-01-18T09:54:31.339Z,39.28
2023-01-18T09:55:31.347Z,39.28
2023-01-18T09:56:31.340Z,39.56
2023-01-18T09:57:31.381Z,39.09
2023-01-18T09:58:31.335Z,39.37
2023-01-18T09:59:31.347Z,39.28
2023-01-18T10:00:31.487Z,39.18
2023-01-18T10:01:31.422Z,39.18
2023-01-18T10:02:31.411Z,39.28
2023-01-18T10:13:48.106Z,39.09
2023-01-18T10:14:47.086Z,39.09
2023-01-18T10:15:47.065Z,39.09
2023-01-18T10:16:47.094Z,39.20
2023-01-18T10:17:47.079Z,39.09
2023-01-18T10:18:47.075Z,39.01
2023-01-18T10:19:47.094Z,39.28
2023-01-18T10:20:47.074Z,39.28
2023-01-18T10:21:47.085Z,38.91
2023-01-18T10:22:47.070Z,38.91
2023-01-18T10:23:47.080Z,39.01
2023-01-18T10:24:47.372Z,39.20
2023-01-18T10:25:47.087Z,39.20
2023-01-18T10:26:47.100Z,39.01
2023-01-18T10:27:47.201Z,39.11
2023-01-18T10:28:46.596Z,39.29
2023-01-18T10:29:45.346Z,39.29
2023-01-18T10:30:45.380Z,39.39
2023-01-18T10:31:46.169Z,39.39
2023-01-18T10:32:45.365Z,39.29
2023-01-18T10:33:45.361Z,39.39
2023-01-18T10:34:45.675Z,39.39
2023-01-18T10:35:47.451Z,39.29
2023-01-18T10:36:47.118Z,39.39
2023-01-18T10:37:47.283Z,39.11
2023-01-18T10:38:46.112Z,39.29
2023-01-18T10:39:45.425Z,39.39
2023-01-18T10:40:45.270Z,39.39
2023-01-18T10:41:47.126Z,39.29
2023-01-18T10:42:47.111Z,39.39
2023-01-18T10:43:45.267Z,39.29
2023-01-18T10:44:45.267Z,39.01
2023-01-18T10:45:45.757Z,39.20
2023-01-18T10:46:45.262Z,39.39
2023-01-18T10:47:47.135Z,39.29
2023-01-18T10:48:45.268Z,39.20
2023-01-18T10:49:45.237Z,39.20
2023-01-18T10:50:47.114Z,39.39
2023-01-18T10:51:45.313Z,39.22
2023-01-18T10:52:47.100Z,39.11
2023-01-18T10:53:46.216Z,39.20
2023-01-18T10:54:45.222Z,39.22
2023-01-18T10:55:47.136Z,39.31
2023-01-18T10:56:45.217Z,39.03
2023-01-18T10:57:47.113Z,39.41
2023-01-18T10:58:45.229Z,39.41
2023-01-18T10:59:47.110Z,39.41
2023-01-18T11:00:47.197Z,39.03
2023-01-18T11:01:45.429Z,39.12
2023-01-18T11:02:47.228Z,39.03
2023-01-18T11:03:47.134Z,39.41
2023-01-18T11:04:45.182Z,39.31
2023-01-18T11:05:46.661Z,39.31
2023-01-18T11:06:47.135Z,39.41
2023-01-18T11:07:45.196Z,39.41
2023-01-18T11:08:45.172Z,39.12
2023-01-18T11:09:45.168Z,39.12
2023-01-18T11:11:47.146Z,39.70
2023-01-18T11:12:45.166Z,39.12
2023-01-18T11:13:45.181Z,39.34
2023-01-18T11:14:45.157Z,39.53
2023-01-18T11:15:45.158Z,39.14
2023-01-18T11:16:45.298Z,39.51
2023-01-18T11:17:46.795Z,39.31
2023-01-18T11:18:45.160Z,39.03
2023-01-18T11:19:47.119Z,39.34
2023-01-18T11:20:46.659Z,39.43
2023-01-18T11:21:47.134Z,39.53
2023-01-18T11:22:46.643Z,39.34
2023-01-18T11:23:46.628Z,39.14
2023-01-18T11:24:46.655Z,39.62
2023-01-18T11:25:46.628Z,39.14
2023-01-18T11:26:46.639Z,38.95
2023-01-18T11:27:46.633Z,39.24
2023-01-18T11:28:46.653Z,39.14
2023-01-18T11:29:47.142Z,39.34
2023-01-18T11:30:46.629Z,39.14
2023-01-18T11:31:45.194Z,39.34
2023-01-18T11:32:45.113Z,39.24
2023-01-18T11:33:46.674Z,39.34
2023-01-18T11:34:45.234Z,39.24
2023-01-18T11:35:46.704Z,39.34
2023-01-18T11:36:45.085Z,39.14
2023-01-18T11:37:46.636Z,39.34
2023-01-18T11:38:46.740Z,39.04
2023-01-18T11:39:45.658Z,38.95
2023-01-18T11:40:46.672Z,38.95
2023-01-18T11:41:45.097Z,39.24
2023-01-18T11:42:45.073Z,39.24
2023-01-18T11:43:46.686Z,39.53
2023-01-18T11:44:45.103Z,38.95
2023-01-18T11:45:45.591Z,39.34
2023-01-18T11:46:45.064Z,38.97
2023-01-18T11:47:45.054Z,39.36
2023-01-18T11:48:46.202Z,39.34
2023-01-18T11:49:46.056Z,39.34
2023-01-18T11:50:46.658Z,38.97
2023-01-18T11:51:46.648Z,39.36
2023-01-18T11:52:46.659Z,39.16
2023-01-18T11:53:46.679Z,39.36
2023-01-18T11:54:46.702Z,39.26
2023-01-18T11:55:46.671Z,39.54
2023-01-18T11:56:46.662Z,39.36
2023-01-18T11:57:46.656Z,39.36
2023-01-18T11:58:46.688Z,39.26
2023-01-18T11:59:46.675Z,39.36
2023-01-18T12:00:46.715Z,39.06
2023-01-18T12:01:46.686Z,39.28
2023-01-18T12:02:46.050Z,39.28
2023-01-18T12:03:45.064Z,39.16
2023-01-18T12:04:45.101Z,38.99
2023-01-18T12:05:46.940Z,39.18
2023-01-18T12:06:45.014Z,39.09
2023-01-18T12:07:45.000Z,39.09
2023-01-18T12:08:45.010Z,39.18
2023-01-18T12:09:45.062Z,39.09
2023-01-18T12:10:46.691Z,39.09
2023-01-18T12:11:45.765Z,39.18
2023-01-18T12:12:46.695Z,39.18
2023-01-18T12:13:46.731Z,39.18
2023-01-18T12:14:45.114Z,39.09
2023-01-18T12:15:45.083Z,39.11
2023-01-18T12:16:45.152Z,39.11
2023-01-18T12:17:46.250Z,39.20
2023-01-18T12:18:46.928Z,39.11
2023-01-18T12:19:45.824Z,38.91
2023-01-18T12:20:48.277Z,39.01
2023-01-18T12:21:44.990Z,38.91
2023-01-18T12:22:44.984Z,38.83
2023-01-18T12:23:46.691Z,38.93
2023-01-18T12:24:46.069Z,39.03
2023-01-18T12:25:44.978Z,38.83
2023-01-18T12:26:46.696Z,38.83
2023-01-18T12:27:44.953Z,38.85
2023-01-18T12:28:46.682Z,38.66
2023-01-18T12:29:44.959Z,39.14
2023-01-18T12:30:46.719Z,38.95
2023-01-18T12:31:46.709Z,38.95
2023-01-18T12:32:44.956Z,39.04
2023-01-18T12:33:46.693Z,38.87
2023-01-18T12:34:46.715Z,38.76
2023-01-18T12:35:46.698Z,38.85
2023-01-18T12:36:46.737Z,38.78
2023-01-18T12:37:46.715Z,38.87
2023-01-18T12:38:46.716Z,39.06
2023-01-18T12:39:46.692Z,38.87
2023-01-18T12:40:46.716Z,38.87
2023-01-18T12:41:46.753Z,38.48
2023-01-18T12:42:46.718Z,38.29
2023-01-18T12:43:46.694Z,38.48
2023-01-18T12:44:44.942Z,38.70
2023-01-18T12:45:44.953Z,38.60
2023-01-18T12:46:46.723Z,38.50
2023-01-18T12:47:44.987Z,38.21
2023-01-18T12:48:44.937Z,38.31
2023-01-18T12:49:45.034Z,38.33
2023-01-18T12:50:45.088Z,38.04
2023-01-18T12:51:46.725Z,38.23
2023-01-18T12:52:44.938Z,37.96
2023-01-18T12:53:44.948Z,38.06
2023-01-18T12:54:46.705Z,37.96
2023-01-18T12:55:46.756Z,37.88
2023-01-18T12:56:46.756Z,37.88
2023-01-18T12:57:46.755Z,37.79
2023-01-18T12:58:44.936Z,37.98
2023-01-18T12:59:46.713Z,37.51
2023-01-18T13:00:46.770Z,38.00
2023-01-18T13:01:46.838Z,37.92
2023-01-18T13:02:44.983Z,38.12
2023-01-18T13:03:46.721Z,37.63
2023-01-18T13:04:46.714Z,37.63
2023-01-18T13:05:46.737Z,37.55
2023-01-18T13:06:46.720Z,37.45
2023-01-18T13:07:46.757Z,37.35
2023-01-18T13:08:46.746Z,37.66
2023-01-18T13:09:46.729Z,37.28
2023-01-18T13:10:46.751Z,37.28
2023-01-18T13:11:46.739Z,37.30
2023-01-18T13:12:46.724Z,37.37
2023-01-18T13:13:46.752Z,37.37
2023-01-18T13:14:46.746Z,37.47
2023-01-18T13:15:46.786Z,37.47
2023-01-18T13:16:46.732Z,37.65
2023-01-18T13:17:46.763Z,37.74
2023-01-18T13:18:46.745Z,37.45
2023-01-18T13:19:46.739Z,37.35
2023-01-18T13:20:46.751Z,37.45
2023-01-18T13:21:46.781Z,37.26
2023-01-18T13:22:44.982Z,37.26
2023-01-18T13:23:46.774Z,37.55
2023-01-18T13:24:46.775Z,37.26
2023-01-18T13:25:46.744Z,37.37
2023-01-18T13:26:46.786Z,37.18
2023-01-18T13:27:46.759Z,36.69
2023-01-18T13:28:46.752Z,37.08
2023-01-18T13:29:46.754Z,36.60
2023-01-18T13:30:46.823Z,36.89
2023-01-18T13:31:46.789Z,36.89
2023-01-18T13:32:46.770Z,36.81
2023-01-18T13:33:46.753Z,36.52
2023-01-18T13:34:48.763Z,36.71
2023-01-18T13:35:46.749Z,36.52
2023-01-18T13:36:46.775Z,36.71
2023-01-18T13:37:46.766Z,36.52
2023-01-18T13:38:46.759Z,36.54
2023-01-18T13:39:46.894Z,36.34
2023-01-18T13:40:46.769Z,36.54
2023-01-18T13:41:46.758Z,36.24
2023-01-18T13:42:46.781Z,36.54
2023-01-18T13:43:46.774Z,36.55
2023-01-18T13:44:46.768Z,36.46
2023-01-18T13:45:46.779Z,36.26
2023-01-18T13:46:46.862Z,36.36
2023-01-18T13:47:46.803Z,36.46
2023-01-18T13:48:46.822Z,36.46
2023-01-18T13:49:46.770Z,36.36
2023-01-18T13:50:46.801Z,36.26
2023-01-18T13:51:46.771Z,36.38
2023-01-18T13:52:46.773Z,35.89
2023-01-18T13:53:46.797Z,35.89
2023-01-18T13:54:46.721Z,36.38
2023-01-18T13:55:46.795Z,36.07
2023-01-18T13:56:45.045Z,35.97
2023-01-18T13:57:45.009Z,36.55
2023-01-18T13:58:46.787Z,36.54
2023-01-18T13:59:45.014Z,36.15
2023-01-18T14:00:46.817Z,36.52
2023-01-18T14:01:46.849Z,36.52
2023-01-18T14:02:45.032Z,36.04
2023-01-18T14:03:46.813Z,36.22
2023-01-18T14:04:45.038Z,36.50
2023-01-18T14:05:46.800Z,36.42
2023-01-18T14:06:46.808Z,36.60
2023-01-18T14:07:45.023Z,36.69
2023-01-18T14:08:46.786Z,36.79
2023-01-18T14:09:46.786Z,36.89
2023-01-18T14:10:46.831Z,36.77
2023-01-18T14:11:46.809Z,36.68
2023-01-18T14:12:46.834Z,36.68
2023-01-18T14:13:46.833Z,36.97
2023-01-18T14:14:46.796Z,36.36
2023-01-18T14:15:46.916Z,36.18
2023-01-18T14:16:46.826Z,36.46
2023-01-18T14:17:58.222Z,36.66
2023-01-18T14:18:46.796Z,36.36
2023-01-18T14:19:46.794Z,36.46
2023-01-18T14:20:46.819Z,36.36
2023-01-18T14:21:45.041Z,36.27
2023-01-18T14:22:45.058Z,36.46
2023-01-18T14:23:45.032Z,36.95
2023-01-18T14:24:45.064Z,36.85
2023-01-18T14:25:45.037Z,36.44
2023-01-18T14:26:46.823Z,36.44
2023-01-18T14:27:46.816Z,36.35
2023-01-18T14:28:46.837Z,36.64
2023-01-18T14:29:45.072Z,36.44
2023-01-18T14:30:46.818Z,36.54
2023-01-18T14:31:46.836Z,36.72
2023-01-18T14:32:46.810Z,36.91
2023-01-18T14:33:46.821Z,36.91
2023-01-18T14:34:46.836Z,37.01
2023-01-18T14:35:46.859Z,37.09
2023-01-18T14:36:46.847Z,36.80
2023-01-18T14:37:46.819Z,37.19
2023-01-18T14:38:46.816Z,37.19
2023-01-18T14:39:46.829Z,37.07
2023-01-18T14:40:46.844Z,37.55
2023-01-18T14:41:46.346Z,37.26
2023-01-18T14:42:46.849Z,37.05
2023-01-18T14:43:46.833Z,37.34
2023-01-18T14:44:57.955Z,37.24
2023-01-18T14:45:46.863Z,37.63
2023-01-18T14:46:49.755Z,37.15
2023-01-18T14:47:46.853Z,37.23
2023-01-18T14:48:46.849Z,37.32
2023-01-18T14:49:46.826Z,37.32
2023-01-18T14:50:46.857Z,37.71
2023-01-18T14:51:46.850Z,37.50
2023-01-18T14:52:46.855Z,37.50
2023-01-18T14:53:45.034Z,37.60
2023-01-18T14:54:47.352Z,37.40
2023-01-18T14:55:45.028Z,37.58
2023-01-18T14:56:46.851Z,37.60
2023-01-18T14:57:46.860Z,37.67
2023-01-18T14:58:46.835Z,37.58
2023-01-18T14:59:46.838Z,37.29
2023-01-18T15:00:46.945Z,37.77
2023-01-18T15:01:46.894Z,37.67
2023-01-18T15:02:46.950Z,37.65
2023-01-18T15:03:46.881Z,37.95
2023-01-18T15:04:46.870Z,37.85
2023-01-18T15:05:46.839Z,37.75
2023-01-18T15:06:46.849Z,37.95
2023-01-18T15:07:46.877Z,37.85
2023-01-18T15:08:46.918Z,37.56
2023-01-18T15:09:46.857Z,37.73
2023-01-18T15:10:46.853Z,37.73
2023-01-18T15:11:46.867Z,37.63
2023-01-18T15:12:46.873Z,37.73
2023-01-18T15:13:46.871Z,37.83
2023-01-18T15:14:46.905Z,37.73
2023-01-18T15:15:46.860Z,37.73
2023-01-18T15:16:46.875Z,37.93
2023-01-18T15:17:46.895Z,37.83
2023-01-18T15:18:46.886Z,37.81
2023-01-18T15:19:46.883Z,38.01
2023-01-18T15:20:46.863Z,38.10
2023-01-18T15:21:46.877Z,38.20
2023-01-18T15:22:46.855Z,38.01
2023-01-18T15:23:46.889Z,37.91
2023-01-18T15:24:46.919Z,38.01
2023-01-18T15:25:44.980Z,37.91
2023-01-18T15:26:44.956Z,38.20
2023-01-18T15:27:44.987Z,38.08
2023-01-18T15:28:44.975Z,38.08
2023-01-18T15:29:46.874Z,37.98
2023-01-18T15:30:46.885Z,38.08
2023-01-18T15:31:44.973Z,37.98
2023-01-18T15:32:46.903Z,37.89
2023-01-18T15:33:45.937Z,37.79
2023-01-18T15:34:45.943Z,37.98
2023-01-18T15:35:47.991Z,37.98
2023-01-18T15:36:46.392Z,38.08
2023-01-18T15:37:45.928Z,38.08
2023-01-18T15:38:46.878Z,38.08
2023-01-18T15:39:45.921Z,38.16
2023-01-18T15:40:46.888Z,38.16
2023-01-18T15:41:46.883Z,38.16
2023-01-18T15:42:46.890Z,37.96
2023-01-18T15:43:45.912Z,38.16
2023-01-18T15:44:45.886Z,38.26
2023-01-18T15:45:46.923Z,38.35
2023-01-18T15:46:46.404Z,38.26
2023-01-18T15:47:46.389Z,38.26
2023-01-18T15:48:46.394Z,38.26
2023-01-18T15:49:46.389Z,38.35
2023-01-18T15:50:46.421Z,38.62
2023-01-18T15:51:46.411Z,38.64
2023-01-18T15:52:46.399Z,38.35
2023-01-18T15:53:45.934Z,38.43
2023-01-18T15:54:46.403Z,38.33
2023-01-18T15:55:44.851Z,38.04
2023-01-18T15:56:46.399Z,38.43
2023-01-18T15:57:46.422Z,38.33
2023-01-18T15:58:44.859Z,38.14
2023-01-18T15:59:44.840Z,38.04
2023-01-18T16:00:46.547Z,38.33
2023-01-18T16:12:58.345Z,38.02
2023-01-18T16:13:58.821Z,38.31
2023-01-18T16:14:58.811Z,38.31
2023-01-18T16:15:58.846Z,38.22
2023-01-18T16:16:58.884Z,38.02
2023-01-18T16:17:59.210Z,38.31
2023-01-18T16:18:58.824Z,38.31
2023-01-18T16:19:58.832Z,38.12
2023-01-18T16:20:58.809Z,38.12
2023-01-18T16:21:58.801Z,38.22
2023-01-18T16:22:59.031Z,38.31
2023-01-18T16:23:58.846Z,38.60
2023-01-18T16:24:58.845Z,38.60
2023-01-18T16:25:58.832Z,38.51
2023-01-18T16:26:58.801Z,38.60
2023-01-18T16:27:58.576Z,38.68
2023-01-18T16:28:57.141Z,38.78
2023-01-18T16:29:58.821Z,38.70
2023-01-18T16:30:57.174Z,38.97
2023-01-18T16:31:57.101Z,38.89
2023-01-18T16:32:57.687Z,38.97
2023-01-18T16:33:57.145Z,38.68
2023-01-18T16:34:58.102Z,38.78
2023-01-18T16:35:57.106Z,38.59
2023-01-18T16:36:58.835Z,38.70
2023-01-18T16:37:57.387Z,38.68
2023-01-18T16:38:57.083Z,38.78
2023-01-18T16:39:58.831Z,38.78
2023-01-18T16:40:57.060Z,38.78
2023-01-18T16:41:57.057Z,38.78
2023-01-18T16:42:57.054Z,38.87
2023-01-18T16:43:58.052Z,38.97
2023-01-18T16:44:58.877Z,38.97
2023-01-18T16:45:57.100Z,38.87
2023-01-18T16:46:58.836Z,38.97
2023-01-18T16:47:59.252Z,38.97
2023-01-18T16:48:58.067Z,38.97
2023-01-18T16:49:58.347Z,38.97
2023-01-18T16:50:58.015Z,38.97
2023-01-18T16:51:58.854Z,39.06
2023-01-18T16:52:58.027Z,38.97
2023-01-18T16:53:58.841Z,39.06
2023-01-18T16:54:57.013Z,39.06
2023-01-18T16:55:58.882Z,39.16
2023-01-18T16:56:58.864Z,38.97
2023-01-18T16:57:59.150Z,38.97
2023-01-18T16:58:58.848Z,38.97
2023-01-18T16:59:58.838Z,38.97
2023-01-18T17:00:58.984Z,38.97
2023-01-18T17:01:59.004Z,39.06
2023-01-18T17:02:57.015Z,39.06
2023-01-18T17:03:56.970Z,38.97
2023-01-18T17:04:56.968Z,39.06
2023-01-18T17:05:58.855Z,38.97
2023-01-18T17:06:56.953Z,39.06
2023-01-18T17:07:58.693Z,38.97
2023-01-18T17:08:56.932Z,38.97
2023-01-18T17:09:56.937Z,39.36
2023-01-18T17:10:58.385Z,39.16
2023-01-18T17:11:56.935Z,39.16
2023-01-18T17:12:57.093Z,39.06
2023-01-18T17:13:56.925Z,38.97
2023-01-18T17:14:58.847Z,39.16
2023-01-18T17:15:58.871Z,38.87
2023-01-18T17:16:56.999Z,38.87
2023-01-18T17:17:58.849Z,39.36
2023-01-18T17:18:58.858Z,39.26